Time;durP1;ratioP1;P1;durP2;ratioP2;P2;SDS_P1;SDS_P2;PMS_P1;PMS_P2;Temp;Humidity;BMP_temperature;BMP_pressure;BME280_temperature;BME280_humidity;BME280_pressure;Samples;Min_cycle;Max_cycle;Signal;HPM_P1;HPM_P2
2023/12/11 00:01:00;;;;;;;;;;;;;;;4.23;69.24;99756.38;5080138;28;19961;-80
2023/12/11 00:03:25;;;;;;;;;;;;;;;4.20;69.45;99752.25;5080249;28;20401;-81
2023/12/11 00:05:50;;;;;;;;;;;;;;;4.20;69.54;99752.25;5079098;28;19924;-81
2023/12/11 00:08:18;;;;;;;;;;;;;;;4.21;69.49;99748.69;5078129;28;19959;-81
2023/12/11 00:10:43;;;;;;;;;;;;;;;4.23;69.44;99748.53;5081009;28;19913;-80
2023/12/11 00:13:09;;;;;;;;;;;;;;;4.26;69.40;99753.50;5080374;28;19991;-81
2023/12/11 00:15:34;;;;;;;;;;;;;;;4.22;69.41;99765.19;5079616;28;19912;-81
2023/12/11 00:17:59;;;;;;;;;;;;;;;4.22;69.47;99754.72;5080814;28;19920;-80
2023/12/11 00:20:25;;;;;;;;;;;;;;;4.19;69.43;99757.59;5078940;28;19966;-80
2023/12/11 00:22:50;;;;;;;;;;;;;;;4.20;69.30;99744.41;5079268;28;19919;-81
2023/12/11 00:25:15;;;;;;;;;;;;;;;4.15;69.43;99755.25;5079991;28;19951;-81
2023/12/11 00:27:41;;;;;;;;;;;;;;;4.18;69.30;99756.78;5081971;28;19920;-81
2023/12/11 00:30:07;;;;;;;;;;;;;;;4.18;69.16;99759.38;5080406;28;19912;-80
2023/12/11 00:32:32;;;;;;;;;;;;;;;4.23;69.37;99772.06;5080618;28;20341;-81
2023/12/11 00:34:57;;;;;;;;;;;;;;;4.26;69.27;99772.63;5080246;28;19916;-81
2023/12/11 00:37:23;;;;;;;;;;;;;;;4.27;68.91;99779.50;5077766;28;19917;-81
2023/12/11 00:39:48;;;;;;;;;;;;;;;4.27;68.95;99787.34;5076713;28;19978;-81
2023/12/11 00:42:13;;;;;;;;;;;;;;;4.25;69.16;99784.03;5080979;28;19919;-81
2023/12/11 00:44:39;;;;;;;;;;;;;;;4.25;69.10;99781.44;5081024;28;19913;-81
2023/12/11 00:47:04;;;;;;;;;;;;;;;4.25;69.03;99791.06;5081036;28;19912;-81
2023/12/11 00:49:30;;;;;;;;;;;;;;;4.24;69.05;99795.44;5081333;28;19916;-81
2023/12/11 00:51:55;;;;;;;;;;;;;;;4.24;69.00;99795.44;5079532;28;19920;-80
2023/12/11 00:54:21;;;;;;;;;;;;;;;4.22;68.98;99802.59;5080283;28;19919;-80
2023/12/11 00:56:46;;;;;;;;;;;;;;;4.23;69.36;99800.81;5080121;28;19913;-81
2023/12/11 00:59:11;;;;;;;;;;;;;;;4.25;69.12;99797.09;5077885;28;19916;-81
2023/12/11 01:01:37;;;;;;;;;;;;;;;4.24;69.07;99792.84;5079404;28;19919;-81
2023/12/11 01:04:02;;;;;;;;;;;;;;;4.25;69.20;99794.50;5079531;28;19916;-80
2023/12/11 01:06:28;;;;;;;;;;;;;;;4.22;69.08;99794.75;5079878;28;19921;-81
2023/12/11 01:08:53;;;;;;;;;;;;;;;4.16;69.01;99797.91;5078824;28;19921;-81
2023/12/11 01:11:19;;;;;;;;;;;;;;;4.09;69.35;99791.53;5078684;28;19916;-80
2023/12/11 01:13:44;;;;;;;;;;;;;;;4.09;69.53;99792.38;5080611;28;19970;-80
2023/12/11 01:16:09;;;;;;;;;;;;;;;4.08;69.44;99782.88;5078876;28;19919;-81
2023/12/11 01:18:35;;;;;;;;;;;;;;;4.08;69.62;99784.66;5079502;28;19967;-80
2023/12/11 01:21:00;;;;;;;;;;;;;;;4.11;69.41;99781.78;5078734;28;19948;-81
2023/12/11 01:23:25;;;;;;;;;;;;;;;4.04;69.69;99783.25;5076426;28;19918;-81
2023/12/11 01:25:51;;;;;;;;;;;;;;;4.07;69.76;99767.31;5079280;28;19912;-81
2023/12/11 01:28:16;;;;;;;;;;;;;;;4.09;69.65;99776.69;5079272;28;19916;-80
2023/12/11 01:30:41;;;;;;;;;;;;;;;4.11;69.85;99771.31;5079348;28;19912;-80
2023/12/11 01:33:07;;;;;;;;;;;;;;;4.12;69.72;99778.22;5079461;28;19936;-81
2023/12/11 01:35:36;;;;;;;;;;;;;;;4.13;69.54;99783.31;5079354;28;19923;-81
2023/12/11 01:38:01;;;;;;;;;;;;;;;4.13;69.75;99788.53;5078676;28;19924;-81
2023/12/11 01:40:26;;;;;;;;;;;;;;;4.15;69.59;99786.63;5077845;28;19913;-81
2023/12/11 01:42:52;;;;;;;;;;;;;;;4.17;69.65;99773.41;5078082;28;19935;-81
2023/12/11 01:45:17;;;;;;;;;;;;;;;4.13;69.93;99772.03;5079433;28;20388;-81
2023/12/11 01:47:42;;;;;;;;;;;;;;;4.11;70.09;99763.50;5076904;28;19919;-81
2023/12/11 01:50:08;;;;;;;;;;;;;;;4.09;70.03;99761.00;5078178;28;19912;-81
2023/12/11 01:52:34;;;;;;;;;;;;;;;4.08;69.96;99750.69;5077686;28;19912;-81
2023/12/11 01:54:59;;;;;;;;;;;;;;;4.13;70.03;99748.50;5078796;28;19912;-80
2023/12/11 01:57:25;;;;;;;;;;;;;;;4.12;70.04;99744.25;5078834;28;19994;-80
2023/12/11 01:59:50;;;;;;;;;;;;;;;4.09;70.07;99731.44;5079342;28;19923;-81
2023/12/11 02:02:19;;;;;;;;;;;;;;;4.11;70.27;99725.13;5079374;28;19913;-81
2023/12/11 02:04:45;;;;;;;;;;;;;;;4.10;70.46;99718.25;5078799;28;20454;-82
2023/12/11 02:07:10;;;;;;;;;;;;;;;4.15;70.04;99710.00;5078761;28;19959;-80
2023/12/11 02:09:36;;;;;;;;;;;;;;;4.12;70.15;99711.09;5080241;28;19916;-81
2023/12/11 02:12:02;;;;;;;;;;;;;;;4.17;70.21;99702.88;5088138;28;19971;-80
2023/12/11 02:14:27;;;;;;;;;;;;;;;4.17;70.46;99715.09;5083555;28;19972;-80
2023/12/11 02:16:53;;;;;;;;;;;;;;;4.17;70.17;99722.94;5080611;28;19936;-80
2023/12/11 02:19:18;;;;;;;;;;;;;;;4.12;70.51;99739.00;5078051;28;19923;-81
2023/12/11 02:21:44;;;;;;;;;;;;;;;4.09;70.23;99739.28;5079145;28;19919;-80
2023/12/11 02:24:17;;;;;;;;;;;;;;;4.11;70.53;99742.59;5080042;28;19919;-81
2023/12/11 02:26:43;;;;;;;;;;;;;;;4.12;70.23;99737.22;5079503;28;19912;-81
2023/12/11 02:29:08;;;;;;;;;;;;;;;4.09;70.29;99745.34;5079871;28;20455;-81
2023/12/11 02:31:33;;;;;;;;;;;;;;;4.09;70.35;99737.50;5081080;28;20363;-81
2023/12/11 02:33:59;;;;;;;;;;;;;;;3.98;70.31;99734.16;5081180;28;19912;-81
2023/12/11 02:36:24;;;;;;;;;;;;;;;3.98;70.32;99734.97;5079654;28;19908;-81
2023/12/11 02:38:49;;;;;;;;;;;;;;;4.03;70.58;99739.81;5076299;28;19923;-81
2023/12/11 02:41:15;;;;;;;;;;;;;;;4.04;70.70;99723.19;5074823;28;19916;-81
2023/12/11 02:43:41;;;;;;;;;;;;;;;4.03;70.38;99700.63;5076371;28;19987;-81
2023/12/11 02:46:06;;;;;;;;;;;;;;;4.07;70.17;99700.22;5079469;28;19920;-81
2023/12/11 02:48:31;;;;;;;;;;;;;;;4.05;70.03;99703.94;5079759;28;19912;-81
2023/12/11 02:50:57;;;;;;;;;;;;;;;4.03;70.06;99706.66;5078072;28;20381;-81
2023/12/11 02:53:22;;;;;;;;;;;;;;;4.03;70.01;99714.50;5079419;28;19912;-81
2023/12/11 02:55:47;;;;;;;;;;;;;;;4.03;70.02;99722.34;5078434;28;19979;-80
2023/12/11 02:58:13;;;;;;;;;;;;;;;4.02;69.82;99717.25;5079025;28;19916;-81
2023/12/11 03:00:38;;;;;;;;;;;;;;;4.05;69.70;99719.59;5083776;28;19919;-81
2023/12/11 03:03:03;;;;;;;;;;;;;;;4.02;69.58;99712.03;5084600;28;19919;-81
2023/12/11 03:05:29;;;;;;;;;;;;;;;3.97;69.97;99722.03;5083762;28;19928;-81
2023/12/11 03:07:54;;;;;;;;;;;;;;;3.90;69.88;99731.38;5082729;28;19912;-81
2023/12/11 03:10:20;;;;;;;;;;;;;;;3.89;70.26;99737.56;5083839;28;19915;-81
2023/12/11 03:12:46;;;;;;;;;;;;;;;3.91;69.94;99740.84;5083416;28;20389;-81
2023/12/11 03:15:11;;;;;;;;;;;;;;;3.91;70.18;99738.25;5083608;28;19934;-81
2023/12/11 03:17:36;;;;;;;;;;;;;;;3.93;70.06;99742.38;5083095;28;19912;-81
2023/12/11 03:20:02;;;;;;;;;;;;;;;3.98;70.14;99750.66;5083056;28;19913;-81
2023/12/11 03:22:28;;;;;;;;;;;;;;;4.00;69.72;99745.28;5081778;28;20034;-81
2023/12/11 03:24:54;;;;;;;;;;;;;;;3.95;70.15;99740.47;5080477;28;19913;-81
2023/12/11 03:27:22;;;;;;;;;;;;;;;3.95;69.82;99737.84;5080161;28;19916;-81
2023/12/11 03:29:48;;;;;;;;;;;;;;;3.95;69.82;99743.06;5082146;28;19995;-81
2023/12/11 03:32:14;;;;;;;;;;;;;;;3.95;69.91;99745.69;5081342;28;19959;-81
2023/12/11 03:34:39;;;;;;;;;;;;;;;3.98;69.80;99748.03;5081421;28;20294;-81
2023/12/11 03:37:05;;;;;;;;;;;;;;;3.96;70.01;99751.75;5081605;28;19917;-81
2023/12/11 03:39:30;;;;;;;;;;;;;;;3.96;69.93;99760.41;5081919;28;19960;-81
2023/12/11 03:41:56;;;;;;;;;;;;;;;3.97;69.85;99764.66;5081433;28;19913;-81
2023/12/11 03:44:21;;;;;;;;;;;;;;;3.97;70.12;99767.28;5081768;28;19912;-81
2023/12/11 03:46:46;;;;;;;;;;;;;;;3.95;70.04;99761.38;5082286;28;19924;-81
2023/12/11 03:49:16;;;;;;;;;;;;;;;3.90;70.24;99763.53;5080296;28;19919;-81
2023/12/11 03:51:42;;;;;;;;;;;;;;;3.87;70.26;99771.63;5081415;28;19947;-81
2023/12/11 03:54:07;;;;;;;;;;;;;;;3.82;70.15;99777.25;5078305;28;19912;-80
2023/12/11 03:56:33;;;;;;;;;;;;;;;3.76;70.27;99785.59;5081560;28;19912;-81
2023/12/11 03:58:59;;;;;;;;;;;;;;;3.71;70.67;99777.28;5083227;28;19938;-81
2023/12/11 04:01:24;;;;;;;;;;;;;;;3.74;70.49;99776.22;5083715;28;19913;-81
2023/12/11 04:03:49;;;;;;;;;;;;;;;3.81;70.44;99785.22;5083335;28;19908;-81
2023/12/11 04:06:15;;;;;;;;;;;;;;;3.83;70.39;99780.69;5083502;28;19921;-81
2023/12/11 04:08:40;;;;;;;;;;;;;;;3.84;70.22;99787.56;5083397;28;19916;-81
2023/12/11 04:11:08;;;;;;;;;;;;;;;3.82;70.42;99790.31;5080200;28;20202;-81
2023/12/11 04:13:34;;;;;;;;;;;;;;;3.79;70.56;99785.34;5082311;28;20404;-79
2023/12/11 04:15:59;;;;;;;;;;;;;;;3.75;70.55;99778.72;5081891;28;19915;-81
2023/12/11 04:18:24;;;;;;;;;;;;;;;3.76;70.16;99766.50;5083571;28;19924;-81
2023/12/11 04:20:50;;;;;;;;;;;;;;;3.79;70.75;99766.22;5084093;28;20448;-80
2023/12/11 04:23:15;;;;;;;;;;;;;;;3.83;70.34;99770.25;5082630;28;20003;-79
2023/12/11 04:25:40;;;;;;;;;;;;;;;3.85;70.37;99765.72;5081890;28;20404;-81
2023/12/11 04:28:06;;;;;;;;;;;;;;;3.87;70.16;99774.25;5081899;28;19948;-81
2023/12/11 04:30:31;;;;;;;;;;;;;;;3.90;70.38;99784.44;5081691;28;19913;-81
2023/12/11 04:32:56;;;;;;;;;;;;;;;3.92;70.39;99795.59;5083357;28;19972;-81
2023/12/11 04:35:22;;;;;;;;;;;;;;;3.92;70.48;99794.75;5079310;28;19924;-81
2023/12/11 04:37:47;;;;;;;;;;;;;;;3.92;70.49;99789.53;5083258;28;19913;-81
2023/12/11 04:40:13;;;;;;;;;;;;;;;3.89;70.42;99789.78;5083806;28;19919;-81
2023/12/11 04:42:39;;;;;;;;;;;;;;;3.85;70.60;99789.22;5082819;28;19913;-80
2023/12/11 04:45:05;;;;;;;;;;;;;;;3.85;70.63;99797.06;5082824;28;19913;-81
2023/12/11 04:47:30;;;;;;;;;;;;;;;3.82;70.59;99795.53;5078670;28;20300;-80
2023/12/11 04:49:56;;;;;;;;;;;;;;;3.78;70.51;99795.91;5077924;28;19927;-80
2023/12/11 04:52:21;;;;;;;;;;;;;;;3.74;70.59;99794.50;5081249;28;19920;-81
2023/12/11 04:54:46;;;;;;;;;;;;;;;3.71;71.25;99785.13;5081869;28;19913;-81
2023/12/11 04:57:12;;;;;;;;;;;;;;;3.71;71.24;99784.28;5081871;28;19967;-80
2023/12/11 04:59:37;;;;;;;;;;;;;;;3.68;71.76;99789.78;5080663;28;19916;-81
2023/12/11 05:02:03;;;;;;;;;;;;;;;3.73;71.07;99780.63;5080150;28;19980;-81
2023/12/11 05:04:28;;;;;;;;;;;;;;;3.77;70.95;99794.25;5079606;28;19912;-81
2023/12/11 05:06:53;;;;;;;;;;;;;;;3.75;70.67;99796.16;5079544;28;19920;-80
2023/12/11 05:09:19;;;;;;;;;;;;;;;3.67;71.20;99791.56;5077584;28;19916;-82
2023/12/11 05:11:44;;;;;;;;;;;;;;;3.57;71.69;99788.06;5081367;28;19968;-80
2023/12/11 05:14:09;;;;;;;;;;;;;;;3.51;72.05;99794.63;5080613;28;19920;-80
2023/12/11 05:16:35;;;;;;;;;;;;;;;3.50;71.76;99790.34;5080683;28;19913;-80
2023/12/11 05:19:00;;;;;;;;;;;;;;;3.54;71.82;99793.53;5081159;28;19916;-81
2023/12/11 05:21:25;;;;;;;;;;;;;;;3.59;71.77;99791.38;5080929;28;19938;-81
2023/12/11 05:23:52;;;;;;;;;;;;;;;3.67;71.71;99791.56;5081150;28;19913;-80
2023/12/11 05:26:20;;;;;;;;;;;;;;;3.74;71.45;99794.50;5081101;28;19908;-80
2023/12/11 05:28:47;;;;;;;;;;;;;;;3.77;71.25;99799.47;5080662;28;19919;-80
2023/12/11 05:31:12;;;;;;;;;;;;;;;3.77;71.04;99807.31;5079645;28;19919;-80
2023/12/11 05:33:38;;;;;;;;;;;;;;;3.66;71.21;99807.34;5080942;28;19940;-79
2023/12/11 05:36:03;;;;;;;;;;;;;;;3.67;71.63;99811.63;5080211;28;19913;-80
2023/12/11 05:38:28;;;;;;;;;;;;;;;3.71;71.49;99810.41;5080310;28;19916;-81
2023/12/11 05:40:54;;;;;;;;;;;;;;;3.58;71.57;99818.44;5081191;28;19912;-81
2023/12/11 05:43:19;;;;;;;;;;;;;;;3.59;71.77;99817.47;5079869;28;19915;-81
2023/12/11 05:45:45;;;;;;;;;;;;;;;3.63;71.41;99826.72;5080662;28;19912;-81
2023/12/11 05:48:10;;;;;;;;;;;;;;;3.67;71.68;99819.44;5080864;28;19947;-81
2023/12/11 05:50:35;;;;;;;;;;;;;;;3.71;71.61;99829.50;5080990;28;19912;-81
2023/12/11 05:53:01;;;;;;;;;;;;;;;3.74;71.20;99828.47;5079693;28;19908;-81
2023/12/11 05:55:26;;;;;;;;;;;;;;;3.74;71.35;99828.47;5080258;28;19908;-81
2023/12/11 05:57:52;;;;;;;;;;;;;;;3.78;71.17;99820.25;5079092;28;19919;-81
2023/12/11 06:00:17;;;;;;;;;;;;;;;3.78;71.47;99819.41;5080912;28;19913;-81
2023/12/11 06:02:43;;;;;;;;;;;;;;;3.77;71.47;99828.22;5080228;28;19983;-81
2023/12/11 06:05:08;;;;;;;;;;;;;;;3.74;71.40;99824.06;5079487;28;19912;-82
2023/12/11 06:07:34;;;;;;;;;;;;;;;3.70;71.54;99830.47;5080216;28;19912;-81
2023/12/11 06:09:59;;;;;;;;;;;;;;;3.67;71.70;99833.34;5080931;28;19919;-81
2023/12/11 06:12:26;;;;;;;;;;;;;;;3.63;72.02;99826.72;5080473;28;19916;-81
2023/12/11 06:14:51;;;;;;;;;;;;;;;3.62;71.97;99830.28;5080179;28;19913;-81
2023/12/11 06:17:17;;;;;;;;;;;;;;;3.62;72.12;99835.50;5080634;28;19912;-80
2023/12/11 06:19:42;;;;;;;;;;;;;;;3.70;71.87;99838.31;5080289;28;19952;-81
2023/12/11 06:22:08;;;;;;;;;;;;;;;3.74;71.75;99841.53;5080460;28;19916;-81
2023/12/11 06:24:33;;;;;;;;;;;;;;;3.79;71.92;99836.75;5080933;28;19913;-81
2023/12/11 06:26:58;;;;;;;;;;;;;;;3.79;71.78;99847.19;5078270;28;20006;-81
2023/12/11 06:29:24;;;;;;;;;;;;;;;3.83;71.28;99841.59;5079119;28;19913;-81
2023/12/11 06:31:49;;;;;;;;;;;;;;;3.85;71.12;99838.84;5080454;28;19941;-81
2023/12/11 06:34:15;;;;;;;;;;;;;;;3.88;71.12;99837.75;5079740;28;19920;-81
2023/12/11 06:36:40;;;;;;;;;;;;;;;3.90;70.99;99835.84;5079462;28;20408;-81
2023/12/11 06:39:05;;;;;;;;;;;;;;;3.92;70.80;99826.09;5081064;28;20011;-80
2023/12/11 06:41:31;;;;;;;;;;;;;;;3.91;70.47;99827.06;5079586;28;19917;-80
2023/12/11 06:43:59;;;;;;;;;;;;;;;3.84;71.24;99829.34;5079325;28;19913;-79
2023/12/11 06:46:29;;;;;;;;;;;;;;;3.80;71.24;99828.78;5076866;28;19912;-81
2023/12/11 06:48:55;;;;;;;;;;;;;;;3.80;71.04;99834.00;5079597;28;19938;-80
2023/12/11 06:51:20;;;;;;;;;;;;;;;3.75;71.11;99830.13;5079438;28;20668;-80
2023/12/11 06:53:46;;;;;;;;;;;;;;;3.76;71.18;99832.59;5078407;28;20373;-81
2023/12/11 06:56:20;;;;;;;;;;;;;;;3.78;71.17;99829.88;5081263;28;19923;-81
2023/12/11 06:58:46;;;;;;;;;;;;;;;3.83;70.96;99818.06;5081107;28;19924;-80
2023/12/11 07:01:12;;;;;;;;;;;;;;;3.90;71.18;99828.00;5081102;28;20366;-81
2023/12/11 07:03:38;;;;;;;;;;;;;;;3.92;70.88;99831.31;5079069;28;19912;-80
2023/12/11 07:06:04;;;;;;;;;;;;;;;3.88;70.77;99833.38;5082122;28;19921;-80
2023/12/11 07:08:29;;;;;;;;;;;;;;;3.90;71.16;99828.00;5083596;28;20400;-80
2023/12/11 07:10:55;;;;;;;;;;;;;;;3.91;70.75;99840.13;5079695;28;19931;-81
2023/12/11 07:13:20;;;;;;;;;;;;;;;3.89;70.67;99828.97;5079047;28;19912;-80
2023/12/11 07:15:45;;;;;;;;;;;;;;;3.87;70.84;99821.25;5080009;28;19919;-79
2023/12/11 07:18:13;;;;;;;;;;;;;;;3.94;70.77;99826.78;5079746;28;19968;-81
2023/12/11 07:20:39;;;;;;;;;;;;;;;3.96;70.73;99838.78;5084532;28;19916;-81
2023/12/11 07:23:05;;;;;;;;;;;;;;;3.90;70.55;99846.28;5099217;28;19995;-81
2023/12/11 07:25:31;;;;;;;;;;;;;;;3.82;71.34;99845.16;5099056;28;19912;-81
2023/12/11 07:27:57;;;;;;;;;;;;;;;3.89;71.30;99844.63;5109850;28;19916;-80
2023/12/11 07:30:22;;;;;;;;;;;;;;;4.00;70.92;99834.94;5100622;28;19919;-81
2023/12/11 07:32:47;;;;;;;;;;;;;;;4.07;70.56;99837.88;5099423;28;19912;-81
2023/12/11 07:35:13;;;;;;;;;;;;;;;4.15;70.56;99849.34;5098118;28;19912;-81
2023/12/11 07:37:39;;;;;;;;;;;;;;;4.23;70.49;99853.09;5098284;28;19924;-81
2023/12/11 07:40:05;;;;;;;;;;;;;;;4.21;70.10;99855.81;5094651;28;19942;-81
2023/12/11 07:42:31;;;;;;;;;;;;;;;4.27;70.03;99852.69;5077414;28;19951;-80
2023/12/11 07:44:56;;;;;;;;;;;;;;;4.35;70.00;99847.63;5077769;28;19912;-81
2023/12/11 07:47:22;;;;;;;;;;;;;;;4.38;69.67;99852.59;5117604;28;19912;-81
2023/12/11 07:49:47;;;;;;;;;;;;;;;4.39;69.73;99856.88;5107193;28;20320;-81
2023/12/11 07:52:13;;;;;;;;;;;;;;;4.42;69.91;99856.59;5120658;28;19979;-81
2023/12/11 07:54:38;;;;;;;;;;;;;;;4.43;69.81;99850.41;5123588;28;20453;-81
2023/12/11 07:57:04;;;;;;;;;;;;;;;4.45;70.04;99843.28;5121869;28;19971;-81
2023/12/11 07:59:30;;;;;;;;;;;;;;;4.52;69.62;99848.84;5087804;28;20112;-80
2023/12/11 08:01:55;;;;;;;;;;;;;;;4.46;69.26;99846.75;5083433;28;20050;-81
2023/12/11 08:04:21;;;;;;;;;;;;;;;4.38;69.70;99850.00;5081784;28;19912;-80
2023/12/11 08:06:46;;;;;;;;;;;;;;;4.41;69.67;99849.72;5095209;28;19920;-80
2023/12/11 08:09:13;;;;;;;;;;;;;;;4.43;69.83;99844.38;5123472;28;19919;-82
2023/12/11 08:11:38;;;;;;;;;;;;;;;4.45;69.61;99851.13;5128535;28;19919;-81
2023/12/11 08:14:05;;;;;;;;;;;;;;;4.43;69.90;99852.22;5126981;28;19911;-82
2023/12/11 08:16:31;;;;;;;;;;;;;;;4.44;70.05;99836.38;5118645;28;19963;-81
2023/12/11 08:18:57;;;;;;;;;;;;;;;4.45;69.84;99845.88;5105263;28;19923;-81
2023/12/11 08:21:23;;;;;;;;;;;;;;;4.43;69.99;99834.75;5104594;28;19916;-81
2023/12/11 08:23:51;;;;;;;;;;;;;;;4.41;70.10;99833.22;5109812;28;19920;-81
2023/12/11 08:26:18;;;;;;;;;;;;;;;4.39;70.17;99829.91;5103916;28;19919;-81
2023/12/11 08:28:43;;;;;;;;;;;;;;;4.38;70.24;99833.47;5114241;28;20441;-81
2023/12/11 08:31:09;;;;;;;;;;;;;;;4.36;70.29;99830.16;5124104;28;19908;-81
2023/12/11 08:33:34;;;;;;;;;;;;;;;4.38;70.28;99830.88;5103619;28;20012;-81
2023/12/11 08:36:00;;;;;;;;;;;;;;;4.40;70.36;99834.16;5114236;28;20533;-81
2023/12/11 08:38:27;;;;;;;;;;;;;;;4.43;70.22;99836.53;5124993;28;19922;-81
2023/12/11 08:40:53;;;;;;;;;;;;;;;4.47;70.05;99830.94;5122260;28;19943;-81
2023/12/11 08:43:18;;;;;;;;;;;;;;;4.50;70.30;99827.22;5110931;28;19944;-80
2023/12/11 08:45:43;;;;;;;;;;;;;;;4.50;70.59;99827.22;5115158;28;19915;-80
2023/12/11 08:48:09;;;;;;;;;;;;;;;4.52;70.61;99830.53;5099117;28;19916;-81
2023/12/11 08:50:34;;;;;;;;;;;;;;;4.46;70.96;99823.22;5109097;28;19938;-80
2023/12/11 08:53:00;;;;;;;;;;;;;;;4.52;70.79;99825.31;5114978;28;19949;-80
2023/12/11 08:55:27;;;;;;;;;;;;;;;4.60;70.35;99822.03;5118768;28;19998;-80
2023/12/11 08:57:52;;;;;;;;;;;;;;;4.60;70.08;99819.41;5119703;28;19912;-80
2023/12/11 09:00:18;;;;;;;;;;;;;;;4.59;70.28;99805.50;5104617;28;19919;-81
2023/12/11 09:02:43;;;;;;;;;;;;;;;4.62;70.41;99804.41;5123050;28;19912;-80
2023/12/11 09:05:09;;;;;;;;;;;;;;;4.68;70.32;99799.47;5119053;28;20401;-81
2023/12/11 09:07:35;;;;;;;;;;;;;;;4.73;70.28;99793.84;5103645;28;19936;-81
2023/12/11 09:10:00;;;;;;;;;;;;;;;4.75;70.37;99794.53;5100103;28;19916;-81
2023/12/11 09:12:26;;;;;;;;;;;;;;;4.70;70.08;99794.09;5086518;28;19912;-81
2023/12/11 09:14:52;;;;;;;;;;;;;;;4.66;70.59;99798.78;5082275;28;19912;-81
2023/12/11 09:17:17;;;;;;;;;;;;;;;4.61;70.77;99802.75;5099775;28;19939;-80
2023/12/11 09:19:43;;;;;;;;;;;;;;;4.62;70.76;99805.25;5101592;28;19938;-81
2023/12/11 09:22:08;;;;;;;;;;;;;;;4.68;71.02;99794.25;5102090;28;19923;-81
2023/12/11 09:24:33;;;;;;;;;;;;;;;4.72;70.44;99806.09;5080467;28;19917;-81
2023/12/11 09:26:59;;;;;;;;;;;;;;;4.70;70.55;99792.31;5081676;28;19913;-81
2023/12/11 09:29:24;;;;;;;;;;;;;;;4.74;70.15;99798.09;5081455;28;19970;-81
2023/12/11 09:31:51;;;;;;;;;;;;;;;4.76;70.17;99802.25;5091604;28;19917;-81
2023/12/11 09:34:17;;;;;;;;;;;;;;;4.75;70.15;99799.75;5088368;28;19955;-81
2023/12/11 09:36:42;;;;;;;;;;;;;;;4.75;70.09;99799.75;5083129;28;19916;-81
2023/12/11 09:39:08;;;;;;;;;;;;;;;4.78;70.16;99799.50;5087565;28;19921;-81
2023/12/11 09:41:34;;;;;;;;;;;;;;;4.79;69.87;99788.91;5082788;28;19912;-81
2023/12/11 09:44:03;;;;;;;;;;;;;;;4.81;69.94;99786.16;5097351;28;19907;-81
2023/12/11 09:46:31;;;;;;;;;;;;;;;4.83;69.84;99789.44;5087661;28;19951;-81
2023/12/11 09:48:57;;;;;;;;;;;;;;;4.89;70.03;99796.75;5091630;28;19955;-81
2023/12/11 09:51:24;;;;;;;;;;;;;;;4.96;70.04;99792.63;5121892;28;19923;-81
2023/12/11 09:53:51;;;;;;;;;;;;;;;5.05;69.71;99791.00;5101461;28;19920;-81
2023/12/11 09:56:18;;;;;;;;;;;;;;;5.13;69.61;99793.75;5097826;28;20316;-81
2023/12/11 09:58:44;;;;;;;;;;;;;;;5.11;69.52;99791.28;5088373;28;19920;-81
2023/12/11 10:01:11;;;;;;;;;;;;;;;5.14;69.71;99795.41;5083088;28;19916;-82
2023/12/11 10:03:37;;;;;;;;;;;;;;;5.06;69.09;99796.09;5087793;28;20065;-82
2023/12/11 10:06:04;;;;;;;;;;;;;;;4.93;70.01;99786.84;5089801;28;19959;-82
2023/12/11 10:08:29;;;;;;;;;;;;;;;4.96;69.91;99787.41;5099132;28;19947;-82
2023/12/11 10:11:15;;;;;;;;;;;;;;;5.02;69.65;99776.38;5086784;28;19917;-82
2023/12/11 10:13:40;;;;;;;;;;;;;;;5.08;69.53;99775.00;5078298;28;20007;-82
2023/12/11 10:16:08;;;;;;;;;;;;;;;5.16;69.70;99776.94;5078153;28;19955;-82
2023/12/11 10:18:46;;;;;;;;;;;;;;;5.20;69.28;99773.94;5073665;28;19976;-82
2023/12/11 10:21:12;;;;;;;;;;;;;;;5.25;69.20;99769.13;5093223;28;19916;-82
2023/12/11 10:23:38;;;;;;;;;;;;;;;5.24;69.40;99762.22;5097002;28;19912;-82
2023/12/11 10:26:04;;;;;;;;;;;;;;;5.27;69.37;99753.28;5080854;28;19917;-82
2023/12/11 10:28:30;;;;;;;;;;;;;;;5.35;69.18;99763.88;5072719;28;19950;-83
2023/12/11 10:30:56;;;;;;;;;;;;;;;5.41;69.41;99755.47;5082650;28;19961;-82
2023/12/11 10:33:25;;;;;;;;;;;;;;;5.46;69.09;99765.53;5090969;28;19927;-82
2023/12/11 10:35:51;;;;;;;;;;;;;;;5.47;68.63;99762.75;5092073;28;19927;-82
2023/12/11 10:38:41;;;;;;;;;;;;;;;5.49;68.89;99766.06;5088748;28;19919;-83
2023/12/11 10:41:25;;;;;;;;;;;;;;;5.49;69.06;99766.06;5075984;28;19920;-84
2023/12/11 10:43:51;;;;;;;;;;;;;;;5.49;68.81;99763.44;5079258;28;20431;-83
2023/12/11 10:46:16;;;;;;;;;;;;;;;5.43;69.11;99754.34;5096856;28;19955;-83
2023/12/11 10:48:41;;;;;;;;;;;;;;;5.42;69.06;99759.72;5089112;28;19982;-82
2023/12/11 10:51:07;;;;;;;;;;;;;;;5.40;69.11;99753.81;5098431;28;20049;-83
2023/12/11 10:53:33;;;;;;;;;;;;;;;5.35;69.84;99743.75;5089387;28;20356;-83
2023/12/11 10:56:00;;;;;;;;;;;;;;;5.41;69.14;99750.22;5078186;28;20450;-82
2023/12/11 10:58:28;;;;;;;;;;;;;;;5.48;69.61;99740.84;5088774;28;19927;-83
2023/12/11 11:00:55;;;;;;;;;;;;;;;5.51;69.41;99734.50;5092145;28;19923;-82
2023/12/11 11:03:21;;;;;;;;;;;;;;;3.70;69.94;99432.75;5092219;28;20411;-85
2023/12/11 11:05:48;;;;;;;;;;;;;;;5.57;69.66;99732.16;5083635;28;19996;-83
2023/12/11 11:08:32;;;;;;;;;;;;;;;5.62;69.54;99722.06;5091022;28;19917;-82
2023/12/11 11:11:16;;;;;;;;;;;;;;;5.68;69.65;99715.44;5091834;28;19919;-82
2023/12/11 11:14:05;;;;;;;;;;;;;;;5.74;69.26;99713.06;5077544;28;20047;-82
2023/12/11 11:17:02;;;;;;;;;;;;;;;5.79;69.43;99694.28;5087566;28;20332;-81
2023/12/11 11:19:29;;;;;;;;;;;;;;;5.79;69.67;99680.38;5057465;28;19920;-80
2023/12/11 11:22:00;;;;;;;;;;;;;;;5.82;69.42;99680.09;5094942;28;19949;-81
2023/12/11 11:24:26;;;;;;;;;;;;;;;5.82;69.43;99675.66;5108893;28;19916;-80
2023/12/11 11:26:52;;;;;;;;;;;;;;;5.85;68.91;99662.28;5096413;28;19922;-80
2023/12/11 11:29:36;;;;;;;;;;;;;;;5.91;69.79;99661.72;5089957;28;19938;-83
2023/12/11 11:32:02;;;;;;;;;;;;;;;5.97;69.61;99655.94;5088803;28;19916;-82
2023/12/11 11:34:47;;;;;;;;;;;;;;;6.03;68.70;99651.91;5099187;28;19923;-84
2023/12/11 11:37:20;;;;;;;;;;;;;;;6.11;68.85;99651.19;5091998;28;19920;-82
2023/12/11 11:40:05;;;;;;;;;;;;;;;6.16;68.62;99651.56;5092627;28;19916;-84
2023/12/11 11:42:31;;;;;;;;;;;;;;;6.18;68.69;99650.44;5087628;28;20007;-84
2023/12/11 11:44:57;;;;;;;;;;;;;;;6.21;68.40;99629.16;5097227;28;19908;-83
2023/12/11 11:47:23;;;;;;;;;;;;;;;6.23;69.05;99627.22;5099055;28;20090;-82
2023/12/11 11:49:48;;;;;;;;;;;;;;;6.25;68.30;99611.34;5092233;28;20437;-83
2023/12/11 11:52:14;;;;;;;;;;;;;;;6.26;68.98;99618.25;5093437;28;19923;-83
2023/12/11 11:54:39;;;;;;;;;;;;;;;6.30;68.69;99622.22;5081575;28;20302;-81
2023/12/11 11:57:08;;;;;;;;;;;;;;;6.34;68.97;99621.75;5090051;28;19920;-82
2023/12/11 11:59:43;;;;;;;;;;;;;;;6.38;68.84;99619.66;5094647;28;19934;-81
2023/12/11 12:02:08;;;;;;;;;;;;;;;6.44;68.74;99613.81;5094574;28;19965;-81
2023/12/11 12:04:34;;;;;;;;;;;;;;;6.48;68.18;99614.34;5093871;28;20385;-83
2023/12/11 12:07:03;;;;;;;;;;;;;;;6.52;68.39;99613.91;5094881;28;20373;-82
2023/12/11 12:09:30;;;;;;;;;;;;;;;6.55;68.35;99610.16;5077882;28;19923;-82
2023/12/11 12:11:55;;;;;;;;;;;;;;;6.55;68.23;99610.97;5094585;28;19915;-83
2023/12/11 12:14:21;;;;;;;;;;;;;;;6.59;69.28;99614.94;5135810;28;19982;-82
2023/12/11 12:16:46;;;;;;;;;;;;;;;6.62;68.27;99617.25;5133103;28;19925;-83
2023/12/11 12:19:11;;;;;;;;;;;;;;;6.58;68.67;99623.78;5102723;28;19921;-83
2023/12/11 12:21:51;;;;;;;;;;;;;;;6.59;68.62;99622.81;5081379;28;20380;-85
2023/12/11 12:24:17;;;;;;;;;;;;;;;6.63;68.46;99621.53;5074440;28;20324;-84
2023/12/11 12:26:43;;;;;;;;;;;;;;;6.68;68.76;99621.09;5089232;28;20006;-86
2023/12/11 12:29:09;;;;;;;;;;;;;;;6.71;68.85;99628.69;5094277;28;19912;-88
2023/12/11 12:31:36;;;;;;;;;;;;;;;6.74;68.75;99630.19;5086550;28;20340;-84
2023/12/11 12:34:02;;;;;;;;;;;;;;;6.76;68.06;99618.56;5093520;28;20282;-86
2023/12/11 12:36:29;;;;;;;;;;;;;;;6.77;68.60;99619.38;5093914;28;19913;-86
2023/12/11 12:38:55;;;;;;;;;;;;;;;6.82;67.96;99622.38;5089327;28;19916;-84
2023/12/11 12:41:20;;;;;;;;;;;;;;;6.82;68.30;99617.13;5080653;28;19917;-83
2023/12/11 12:43:46;;;;;;;;;;;;;;;6.82;68.61;99617.94;5071168;28;19908;-84
2023/12/11 12:46:11;;;;;;;;;;;;;;;6.83;68.73;99618.78;5082361;28;19985;-85
2023/12/11 12:48:36;;;;;;;;;;;;;;;6.82;68.38;99620.56;5081195;28;19924;-85
2023/12/11 12:51:09;;;;;;;;;;;;;;;6.83;67.97;99614.34;5072108;28;19923;-83
2023/12/11 12:53:44;;;;;;;;;;;;;;;6.85;68.39;99611.56;5073649;28;20336;-83